Time;durP1;ratioP1;P1;durP2;ratioP2;P2;SDS_P1;SDS_P2;PMS_P1;PMS_P2;Temp;Humidity;BMP_temperature;BMP_pressure;BME280_temperature;BME280_humidity;BME280_pressure;Samples;Min_cycle;Max_cycle;Signal;HPM_P1;HPM_P2
2023/09/01 00:01:00;;;;;;;;;;;17.50;75.80;;;;;;4994668;28;19917;-82
2023/09/01 00:03:26;;;;;;;;;;;17.50;75.70;;;;;;5029126;28;20289;-81
2023/09/01 00:05:51;;;;;;;;;;;17.50;75.60;;;;;;5011180;28;19922;-81
2023/09/01 00:08:17;;;;;;;;;;;17.60;75.60;;;;;;5011265;28;19917;-81
2023/09/01 00:10:42;;;;;;;;;;;17.50;75.60;;;;;;5028826;28;19921;-81
2023/09/01 00:13:08;;;;;;;;;;;17.60;75.70;;;;;;5011440;28;19932;-81
2023/09/01 00:15:33;;;;;;;;;;;17.50;75.70;;;;;;5028841;28;19975;-81
2023/09/01 00:17:59;;;;;;;;;;;17.50;75.70;;;;;;5011080;28;19964;-81
2023/09/01 00:20:25;;;;;;;;;;;17.60;75.70;;;;;;5011207;28;19920;-82
2023/09/01 00:22:50;;;;;;;;;;;17.50;75.70;;;;;;4994803;28;20357;-81
2023/09/01 00:25:16;;;;;;;;;;;17.50;75.60;;;;;;5010922;28;20007;-81
2023/09/01 00:27:41;;;;;;;;;;;17.50;75.60;;;;;;4994446;28;19917;-81
2023/09/01 00:30:08;;;;;;;;;;;17.50;75.60;;;;;;4994506;28;19978;-81
2023/09/01 00:32:33;;;;;;;;;;;17.50;75.60;;;;;;5010811;28;19936;-81
2023/09/01 00:35:00;;;;;;;;;;;17.40;75.60;;;;;;4994369;28;20374;-81
2023/09/01 00:37:25;;;;;;;;;;;17.40;75.70;;;;;;5010478;28;19909;-81
2023/09/01 00:39:51;;;;;;;;;;;17.40;75.70;;;;;;5010226;28;19924;-81
2023/09/01 00:42:16;;;;;;;;;;;17.40;75.70;;;;;;5010557;28;20059;-81
2023/09/01 00:44:42;;;;;;;;;;;17.30;75.70;;;;;;4994135;28;20258;-81
2023/09/01 00:47:08;;;;;;;;;;;17.30;75.70;;;;;;5010643;28;20015;-81
2023/09/01 00:49:35;;;;;;;;;;;17.30;75.70;;;;;;5028149;28;19909;-81
2023/09/01 00:52:01;;;;;;;;;;;17.40;75.80;;;;;;5028116;28;19909;-81
2023/09/01 00:54:26;;;;;;;;;;;17.30;75.80;;;;;;5028198;28;19962;-81
2023/09/01 00:56:53;;;;;;;;;;;17.30;75.80;;;;;;4994210;28;20050;-81
2023/09/01 00:59:20;;;;;;;;;;;17.40;75.80;;;;;;5027984;28;19963;-81
2023/09/01 01:01:46;;;;;;;;;;;17.30;75.70;;;;;;4994142;28;20356;-81
2023/09/01 01:04:12;;;;;;;;;;;17.30;75.70;;;;;;5010384;28;19917;-81
2023/09/01 01:06:58;;;;;;;;;;;17.30;75.80;;;;;;5010379;28;19917;-82
2023/09/01 01:09:27;;;;;;;;;;;17.30;75.80;;;;;;5027357;28;19913;-81
2023/09/01 01:11:52;;;;;;;;;;;17.30;75.80;;;;;;5027947;28;19943;-81
2023/09/01 01:14:39;;;;;;;;;;;17.30;75.80;;;;;;5010330;28;19913;-81
2023/09/01 01:17:05;;;;;;;;;;;17.30;75.80;;;;;;5010569;28;19909;-81
2023/09/01 01:19:39;;;;;;;;;;;17.30;75.90;;;;;;5012298;28;19964;-81
2023/09/01 01:22:05;;;;;;;;;;;17.30;75.90;;;;;;5028110;28;19913;-81
2023/09/01 01:24:33;;;;;;;;;;;17.30;75.90;;;;;;5028080;28;20331;-81
2023/09/01 01:26:59;;;;;;;;;;;17.30;75.90;;;;;;5027928;28;19920;-81
2023/09/01 01:29:25;;;;;;;;;;;17.30;75.90;;;;;;5010206;28;19909;-81
2023/09/01 01:31:52;;;;;;;;;;;17.40;76.00;;;;;;5010254;28;20380;-81
2023/09/01 01:34:22;;;;;;;;;;;17.40;76.00;;;;;;5010110;28;19975;-81
2023/09/01 01:36:49;;;;;;;;;;;17.40;76.00;;;;;;5027739;28;19917;-81
2023/09/01 01:39:21;;;;;;;;;;;17.40;76.00;;;;;;5009942;28;19909;-81
2023/09/01 01:41:54;;;;;;;;;;;17.40;76.10;;;;;;5010167;28;20368;-81
2023/09/01 01:44:20;;;;;;;;;;;17.40;76.10;;;;;;5027853;28;19909;-81
2023/09/01 01:46:46;;;;;;;;;;;17.40;76.00;;;;;;5010081;28;19936;-81
2023/09/01 01:49:14;;;;;;;;;;;17.40;75.90;;;;;;5009838;28;19913;-80
2023/09/01 01:51:39;;;;;;;;;;;17.40;75.90;;;;;;5012850;28;19951;-81
2023/09/01 01:54:05;;;;;;;;;;;17.40;75.90;;;;;;5031519;28;19912;-81
2023/09/01 01:56:31;;;;;;;;;;;17.40;76.00;;;;;;5031329;28;20269;-81
2023/09/01 01:58:56;;;;;;;;;;;17.40;76.00;;;;;;5013550;28;19913;-81
2023/09/01 02:01:22;;;;;;;;;;;17.40;76.00;;;;;;5013468;28;19922;-81
2023/09/01 02:03:48;;;;;;;;;;;17.40;76.00;;;;;;5013734;28;19960;-81
2023/09/01 02:06:14;;;;;;;;;;;17.40;75.90;;;;;;4997256;28;19971;-81
2023/09/01 02:08:39;;;;;;;;;;;17.40;75.90;;;;;;4997081;28;19977;-81
2023/09/01 02:11:05;;;;;;;;;;;17.40;76.00;;;;;;4996842;28;20385;-79
2023/09/01 02:13:31;;;;;;;;;;;17.40;76.00;;;;;;5013261;28;20312;-81
2023/09/01 02:15:56;;;;;;;;;;;17.50;76.50;;;;;;5013148;28;19917;-81
2023/09/01 02:18:22;;;;;;;;;;;17.40;76.00;;;;;;5013510;28;19914;-81
2023/09/01 02:20:48;;;;;;;;;;;17.50;76.10;;;;;;5013175;28;20385;-82
2023/09/01 02:23:16;;;;;;;;;;;17.50;76.10;;;;;;5031215;28;19909;-81
2023/09/01 02:25:43;;;;;;;;;;;17.50;76.00;;;;;;4996852;28;19919;-82
2023/09/01 02:28:08;;;;;;;;;;;17.40;75.90;;;;;;5013023;28;20125;-81
2023/09/01 02:30:34;;;;;;;;;;;17.40;75.90;;;;;;5013048;28;19909;-81
2023/09/01 02:32:59;;;;;;;;;;;17.40;76.00;;;;;;4996916;28;19917;-81
2023/09/01 02:35:25;;;;;;;;;;;17.40;76.00;;;;;;4997056;28;19913;-82
2023/09/01 02:37:51;;;;;;;;;;;17.40;75.90;;;;;;5013011;28;19909;-81
2023/09/01 02:40:16;;;;;;;;;;;17.30;75.90;;;;;;4996440;28;20397;-81
2023/09/01 02:42:42;;;;;;;;;;;17.30;76.40;;;;;;4996885;28;20404;-81
2023/09/01 02:45:11;;;;;;;;;;;17.30;76.00;;;;;;5012869;28;20125;-81
2023/09/01 02:47:36;;;;;;;;;;;17.30;76.00;;;;;;5012791;28;19932;-82
2023/09/01 02:50:03;;;;;;;;;;;17.30;76.00;;;;;;5012494;28;19913;-82
2023/09/01 02:52:29;;;;;;;;;;;17.20;76.10;;;;;;5012913;28;19957;-81
2023/09/01 02:54:55;;;;;;;;;;;17.20;76.00;;;;;;5012527;28;19968;-81
2023/09/01 02:57:21;;;;;;;;;;;17.20;76.10;;;;;;5019535;28;19913;-81
2023/09/01 02:59:46;;;;;;;;;;;17.30;76.10;;;;;;5030799;28;19936;-80
2023/09/01 03:02:12;;;;;;;;;;;17.30;76.00;;;;;;5012085;28;19913;-81
2023/09/01 03:04:38;;;;;;;;;;;17.20;76.00;;;;;;5030248;28;19909;-82
2023/09/01 03:07:03;;;;;;;;;;;17.20;76.00;;;;;;4996224;28;19929;-81
2023/09/01 03:09:29;;;;;;;;;;;17.20;76.00;;;;;;4996169;28;20350;-82
2023/09/01 03:11:54;;;;;;;;;;;17.30;76.00;;;;;;4995854;28;20020;-81
2023/09/01 03:14:20;;;;;;;;;;;17.30;76.00;;;;;;4995934;28;19925;-82
2023/09/01 03:16:45;;;;;;;;;;;17.30;76.00;;;;;;5012325;28;19909;-81
2023/09/01 03:19:11;;;;;;;;;;;17.30;76.00;;;;;;4995910;28;19988;-81
2023/09/01 03:21:37;;;;;;;;;;;17.30;76.00;;;;;;5030067;28;19956;-81
2023/09/01 03:24:02;;;;;;;;;;;17.30;76.00;;;;;;4996203;28;20329;-82
2023/09/01 03:26:31;;;;;;;;;;;17.30;76.00;;;;;;5029806;28;19950;-80
2023/09/01 03:28:56;;;;;;;;;;;17.30;76.00;;;;;;4995622;28;20008;-82
2023/09/01 03:31:22;;;;;;;;;;;17.30;76.00;;;;;;5012133;28;20004;-81
2023/09/01 03:33:47;;;;;;;;;;;17.30;76.00;;;;;;5012009;28;19917;-82
2023/09/01 03:36:13;;;;;;;;;;;17.30;76.00;;;;;;5012128;28;19922;-81
2023/09/01 03:38:39;;;;;;;;;;;17.30;76.00;;;;;;5012075;28;19948;-81
2023/09/01 03:41:05;;;;;;;;;;;17.30;76.10;;;;;;5011923;28;20316;-82
2023/09/01 03:43:32;;;;;;;;;;;17.30;76.10;;;;;;5011669;28;19959;-82
2023/09/01 03:45:57;;;;;;;;;;;17.30;76.10;;;;;;5011749;28;19913;-82
2023/09/01 03:48:23;;;;;;;;;;;17.30;76.00;;;;;;5029517;28;19954;-81
2023/09/01 03:51:08;;;;;;;;;;;17.30;76.00;;;;;;4995396;28;20026;-81
2023/09/01 03:53:33;;;;;;;;;;;17.20;76.00;;;;;;5011742;28;20366;-81
2023/09/01 03:56:00;;;;;;;;;;;17.20;76.00;;;;;;4995080;28;19945;-81
2023/09/01 03:58:26;;;;;;;;;;;17.20;76.00;;;;;;5011412;28;19940;-81
2023/09/01 04:00:51;;;;;;;;;;;17.20;76.00;;;;;;4995145;28;19959;-82
2023/09/01 04:03:17;;;;;;;;;;;17.20;76.00;;;;;;5011628;28;19925;-82
2023/09/01 04:05:42;;;;;;;;;;;17.10;75.90;;;;;;4995068;28;19913;-82
2023/09/01 04:08:08;;;;;;;;;;;17.00;75.90;;;;;;4994838;28;20095;-81
2023/09/01 04:10:34;;;;;;;;;;;17.00;76.00;;;;;;4994703;28;19925;-81
2023/09/01 04:13:01;;;;;;;;;;;16.90;76.00;;;;;;4994212;28;20449;-80
2023/09/01 04:15:26;;;;;;;;;;;16.90;76.00;;;;;;5011486;28;20389;-81
2023/09/01 04:17:52;;;;;;;;;;;16.90;76.00;;;;;;5011255;28;19979;-81
2023/09/01 04:20:18;;;;;;;;;;;16.90;76.00;;;;;;5011441;28;19932;-81
2023/09/01 04:22:43;;;;;;;;;;;16.90;76.10;;;;;;4994768;28;19913;-82
2023/09/01 04:25:09;;;;;;;;;;;16.90;76.10;;;;;;4994694;28;19954;-82
2023/09/01 04:27:34;;;;;;;;;;;16.90;76.10;;;;;;4994497;28;19924;-81
2023/09/01 04:30:00;;;;;;;;;;;16.90;76.10;;;;;;4995013;28;19917;-81
2023/09/01 04:32:25;;;;;;;;;;;16.90;76.10;;;;;;4994762;28;20284;-81
2023/09/01 04:34:51;;;;;;;;;;;16.90;76.00;;;;;;5013324;28;19913;-81
2023/09/01 04:37:16;;;;;;;;;;;17.00;76.10;;;;;;5017274;28;19962;-81
2023/09/01 04:39:42;;;;;;;;;;;16.90;75.90;;;;;;5010902;28;19913;-81
2023/09/01 04:42:07;;;;;;;;;;;16.90;75.90;;;;;;5010837;28;19917;-81
2023/09/01 04:44:33;;;;;;;;;;;16.90;75.90;;;;;;4994433;28;19925;-82
2023/09/01 04:46:58;;;;;;;;;;;16.90;76.00;;;;;;4994216;28;19925;-82
2023/09/01 04:49:24;;;;;;;;;;;16.90;76.00;;;;;;5010441;28;19920;-81
2023/09/01 04:51:50;;;;;;;;;;;16.90;76.00;;;;;;4994204;28;19913;-81
2023/09/01 04:54:15;;;;;;;;;;;16.80;75.90;;;;;;5028384;28;19998;-81
2023/09/01 04:56:42;;;;;;;;;;;16.80;75.90;;;;;;5028295;28;19913;-81
2023/09/01 04:59:07;;;;;;;;;;;16.80;76.00;;;;;;4994148;28;20294;-81
2023/09/01 05:01:33;;;;;;;;;;;16.80;76.10;;;;;;5010715;28;19916;-82
2023/09/01 05:03:59;;;;;;;;;;;16.80;76.10;;;;;;4994171;28;19913;-82
2023/09/01 05:06:25;;;;;;;;;;;16.80;76.10;;;;;;4994209;28;19921;-81
2023/09/01 05:08:50;;;;;;;;;;;16.80;76.10;;;;;;4994009;28;19936;-81
2023/09/01 05:11:16;;;;;;;;;;;16.80;76.10;;;;;;4993737;28;19976;-81
2023/09/01 05:13:41;;;;;;;;;;;16.80;76.10;;;;;;5010611;28;19920;-81
2023/09/01 05:16:07;;;;;;;;;;;16.80;76.10;;;;;;5010346;28;20377;-82
2023/09/01 05:18:32;;;;;;;;;;;16.70;76.00;;;;;;5010919;28;20005;-81
2023/09/01 05:20:58;;;;;;;;;;;16.60;76.00;;;;;;5010506;28;19917;-82
2023/09/01 05:23:25;;;;;;;;;;;16.50;76.00;;;;;;5010379;28;19967;-81
2023/09/01 05:25:52;;;;;;;;;;;16.40;76.00;;;;;;4997260;28;19913;-82
2023/09/01 05:28:17;;;;;;;;;;;16.30;76.10;;;;;;4998182;28;19917;-81
2023/09/01 05:30:43;;;;;;;;;;;16.20;76.10;;;;;;4998088;28;20520;-81
2023/09/01 05:33:09;;;;;;;;;;;16.20;76.20;;;;;;5014766;28;20396;-81
2023/09/01 05:35:35;;;;;;;;;;;16.10;76.20;;;;;;5031962;28;19909;-82
2023/09/01 05:38:00;;;;;;;;;;;16.20;76.20;;;;;;4997695;28;20183;-82
2023/09/01 05:40:26;;;;;;;;;;;16.20;76.20;;;;;;5014150;28;19922;-82
2023/09/01 05:42:51;;;;;;;;;;;16.20;76.20;;;;;;5013577;28;19924;-75
2023/09/01 05:45:17;;;;;;;;;;;16.20;76.10;;;;;;5031199;28;19967;-74
2023/09/01 05:47:43;;;;;;;;;;;16.20;76.20;;;;;;5030922;28;19921;-74
2023/09/01 05:50:09;;;;;;;;;;;16.30;76.20;;;;;;5031020;28;19909;-70
2023/09/01 05:52:34;;;;;;;;;;;16.30;76.20;;;;;;5031776;28;19974;-81
2023/09/01 05:55:00;;;;;;;;;;;16.30;76.10;;;;;;5014054;28;20301;-81
2023/09/01 05:57:25;;;;;;;;;;;16.30;76.00;;;;;;4997509;28;19967;-81
2023/09/01 05:59:51;;;;;;;;;;;16.40;76.10;;;;;;5031194;28;20032;-81
2023/09/01 06:02:17;;;;;;;;;;;16.30;76.00;;;;;;5031216;28;19917;-81
2023/09/01 06:04:42;;;;;;;;;;;16.40;76.10;;;;;;4997623;28;19917;-82
2023/09/01 06:07:08;;;;;;;;;;;16.40;76.10;;;;;;4997119;28;19927;-82
2023/09/01 06:09:34;;;;;;;;;;;16.40;76.10;;;;;;4996758;28;19955;-82
2023/09/01 06:12:00;;;;;;;;;;;16.40;76.10;;;;;;5013453;28;19944;-81
2023/09/01 06:14:26;;;;;;;;;;;16.50;76.10;;;;;;5027700;28;19961;-82
2023/09/01 06:16:51;;;;;;;;;;;16.50;76.10;;;;;;4998944;28;19917;-82
2023/09/01 06:19:18;;;;;;;;;;;16.50;76.10;;;;;;5013481;28;20358;-82
2023/09/01 06:21:43;;;;;;;;;;;16.50;76.00;;;;;;5013415;28;19913;-82
2023/09/01 06:24:09;;;;;;;;;;;16.60;76.10;;;;;;4996772;28;20040;-82
2023/09/01 06:26:34;;;;;;;;;;;16.60;76.00;;;;;;5013001;28;20015;-82
2023/09/01 06:29:00;;;;;;;;;;;16.60;76.10;;;;;;5030606;28;19918;-81
2023/09/01 06:31:25;;;;;;;;;;;16.60;76.10;;;;;;5013007;28;19914;-82
2023/09/01 06:33:51;;;;;;;;;;;16.60;76.00;;;;;;4997171;28;19935;-81
2023/09/01 06:36:18;;;;;;;;;;;16.60;76.10;;;;;;4995883;28;20251;-82
2023/09/01 06:38:44;;;;;;;;;;;16.70;76.10;;;;;;4997646;28;19928;-81
2023/09/01 06:41:10;;;;;;;;;;;16.70;76.10;;;;;;4997272;28;19913;-74
2023/09/01 06:43:36;;;;;;;;;;;16.70;76.10;;;;;;5013930;28;19909;-82
2023/09/01 06:46:01;;;;;;;;;;;16.70;76.10;;;;;;5012747;28;19914;-82
2023/09/01 06:48:29;;;;;;;;;;;16.70;76.10;;;;;;4996516;28;20056;-82
2023/09/01 06:50:54;;;;;;;;;;;16.80;76.10;;;;;;5013109;28;19963;-81
2023/09/01 06:53:20;;;;;;;;;;;16.80;76.10;;;;;;4996092;28;19913;-81
2023/09/01 06:55:46;;;;;;;;;;;16.90;76.10;;;;;;5012505;28;19921;-80
2023/09/01 06:58:13;;;;;;;;;;;16.90;76.10;;;;;;5012343;28;20384;-81
2023/09/01 07:00:38;;;;;;;;;;;17.00;76.10;;;;;;4996313;28;19952;-82
2023/09/01 07:03:04;;;;;;;;;;;17.10;76.10;;;;;;4996497;28;19913;-80
2023/09/01 07:05:29;;;;;;;;;;;17.10;76.10;;;;;;5012399;28;19959;-83
2023/09/01 07:07:55;;;;;;;;;;;17.20;76.20;;;;;;5012199;28;19921;-82
2023/09/01 07:10:20;;;;;;;;;;;17.20;76.20;;;;;;5012151;28;20292;-81
2023/09/01 07:12:46;;;;;;;;;;;17.30;76.20;;;;;;5012741;28;19914;-82
2023/09/01 07:15:12;;;;;;;;;;;17.30;76.10;;;;;;5030631;28;19913;-82
2023/09/01 07:17:37;;;;;;;;;;;17.40;76.10;;;;;;4995883;28;19972;-82
2023/09/01 07:20:04;;;;;;;;;;;17.40;76.10;;;;;;5012219;28;19999;-81
2023/09/01 07:22:29;;;;;;;;;;;17.50;76.00;;;;;;5011995;28;20004;-82
2023/09/01 07:24:55;;;;;;;;;;;17.60;76.10;;;;;;5030186;28;19925;-81
2023/09/01 07:27:20;;;;;;;;;;;17.70;76.20;;;;;;4996006;28;20329;-81
2023/09/01 07:29:48;;;;;;;;;;;17.80;76.20;;;;;;4995289;28;19948;-82
2023/09/01 07:32:17;;;;;;;;;;;17.90;76.20;;;;;;4995893;28;19913;-81
2023/09/01 07:34:43;;;;;;;;;;;18.00;76.10;;;;;;5012393;28;19909;-82
2023/09/01 07:37:08;;;;;;;;;;;18.20;76.20;;;;;;5012242;28;20051;-82
2023/09/01 07:39:35;;;;;;;;;;;18.30;76.30;;;;;;4995893;28;19913;-81
2023/09/01 07:42:01;;;;;;;;;;;18.70;76.40;;;;;;4995867;28;19990;-81
2023/09/01 07:44:27;;;;;;;;;;;19.00;76.10;;;;;;4995920;28;20007;-81
2023/09/01 07:46:52;;;;;;;;;;;19.10;75.80;;;;;;5011807;28;19940;-81
2023/09/01 07:49:18;;;;;;;;;;;19.10;75.80;;;;;;4995287;28;19917;-81
2023/09/01 07:51:44;;;;;;;;;;;19.00;75.80;;;;;;5014856;28;19967;-81
2023/09/01 07:54:10;;;;;;;;;;;18.90;75.70;;;;;;5016424;28;19914;-81
2023/09/01 07:56:35;;;;;;;;;;;18.90;75.80;;;;;;5012737;28;19909;-82
2023/09/01 07:59:02;;;;;;;;;;;18.80;75.90;;;;;;4995045;28;20333;-81
2023/09/01 08:01:29;;;;;;;;;;;18.80;75.90;;;;;;5012201;28;19917;-81
2023/09/01 08:03:59;;;;;;;;;;;18.80;76.10;;;;;;5012071;28;19917;-81
2023/09/01 08:06:26;;;;;;;;;;;18.70;76.20;;;;;;5011013;28;19928;-81
2023/09/01 08:08:51;;;;;;;;;;;18.70;76.40;;;;;;5011335;28;19912;-81
2023/09/01 08:11:17;;;;;;;;;;;18.60;76.70;;;;;;5012368;28;20381;-81
2023/09/01 08:13:43;;;;;;;;;;;18.70;77.10;;;;;;4996509;28;19917;-81
2023/09/01 08:16:08;;;;;;;;;;;18.90;77.20;;;;;;4996421;28;20183;-82
2023/09/01 08:18:34;;;;;;;;;;;19.20;77.00;;;;;;4997328;28;20293;-75
2023/09/01 08:21:03;;;;;;;;;;;19.40;76.70;;;;;;5011544;28;19917;-82
2023/09/01 08:23:28;;;;;;;;;;;19.60;76.40;;;;;;5030320;28;20012;-81
2023/09/01 08:25:54;;;;;;;;;;;19.70;76.30;;;;;;4995371;28;20372;-81
2023/09/01 08:28:20;;;;;;;;;;;19.90;76.50;;;;;;5011399;28;19935;-82
2023/09/01 08:30:46;;;;;;;;;;;20.10;76.60;;;;;;5011049;28;20254;-81
2023/09/01 08:33:13;;;;;;;;;;;20.30;76.60;;;;;;4995180;28;19921;-82
2023/09/01 08:35:39;;;;;;;;;;;20.70;77.20;;;;;;5011637;28;19953;-82
2023/09/01 08:38:05;;;;;;;;;;;21.40;77.20;;;;;;4994979;28;19913;-82
2023/09/01 08:40:30;;;;;;;;;;;22.10;77.00;;;;;;4994886;28;19913;-80
2023/09/01 08:42:56;;;;;;;;;;;22.70;76.60;;;;;;4995235;28;20289;-83
2023/09/01 08:45:22;;;;;;;;;;;23.00;76.30;;;;;;5029033;28;19983;-77
2023/09/01 08:47:48;;;;;;;;;;;23.20;76.50;;;;;;5027844;28;20396;-77
2023/09/01 08:50:15;;;;;;;;;;;23.30;76.30;;;;;;5027495;28;19916;-78
2023/09/01 08:52:42;;;;;;;;;;;23.20;76.50;;;;;;5027600;28;20376;-78
2023/09/01 08:55:07;;;;;;;;;;;23.20;76.70;;;;;;5010008;28;19959;-77
2023/09/01 08:57:33;;;;;;;;;;;23.30;76.90;;;;;;5010847;28;20307;-76
2023/09/01 09:00:09;;;;;;;;;;;23.50;77.20;;;;;;4993157;28;19936;-80
2023/09/01 09:02:36;;;;;;;;;;;23.80;77.30;;;;;;4993848;28;19913;-81
2023/09/01 09:05:09;;;;;;;;;;;24.20;77.20;;;;;;5010435;28;19935;-79
2023/09/01 09:08:03;;;;;;;;;;;24.50;76.80;;;;;;5027898;28;19936;-81
2023/09/01 09:11:01;;;;;;;;;;;24.80;77.10;;;;;;5009400;28;19928;-81
2023/09/01 09:13:27;;;;;;;;;;;25.40;78.00;;;;;;4993264;28;20426;-81
2023/09/01 09:16:12;;;;;;;;;;;26.00;78.30;;;;;;5010396;28;19909;-83
2023/09/01 09:18:53;;;;;;;;;;;26.20;77.90;;;;;;5012864;28;20548;-80
2023/09/01 09:21:25;;;;;;;;;;;26.10;77.20;;;;;;5011529;28;19909;-81
2023/09/01 09:23:54;;;;;;;;;;;25.50;77.00;;;;;;5012559;28;19909;-81
2023/09/01 09:26:26;;;;;;;;;;;25.10;77.20;;;;;;5030486;28;20017;-81
2023/09/01 09:29:11;;;;;;;;;;;24.80;77.30;;;;;;4987854;28;19917;-81
2023/09/01 09:31:39;;;;;;;;;;;24.80;77.50;;;;;;4979910;28;19942;-80
2023/09/01 09:34:17;;;;;;;;;;;24.90;78.00;;;;;;4982209;28;20319;-81
2023/09/01 09:36:44;;;;;;;;;;;25.20;78.20;;;;;;5004690;28;19949;-80
2023/09/01 09:39:25;;;;;;;;;;;25.50;77.70;;;;;;4987108;28;20004;-81
2023/09/01 09:41:51;;;;;;;;;;;25.60;77.20;;;;;;4969267;28;20363;-80
2023/09/01 09:44:29;;;;;;;;;;;25.50;76.70;;;;;;4984276;28;20081;-81
2023/09/01 09:46:55;;;;;;;;;;;25.40;76.50;;;;;;4988151;28;19914;-80
2023/09/01 09:49:22;;;;;;;;;;;25.20;76.20;;;;;;5004246;28;19914;-80
2023/09/01 09:51:51;;;;;;;;;;;25.00;76.40;;;;;;4987816;28;20262;-81
2023/09/01 09:54:21;;;;;;;;;;;25.00;76.90;;;;;;4975658;28;20394;-81
2023/09/01 09:56:48;;;;;;;;;;;25.20;77.20;;;;;;4961675;28;19914;-81
2023/09/01 09:59:15;;;;;;;;;;;25.50;77.30;;;;;;4996006;28;19909;-82
2023/09/01 10:01:43;;;;;;;;;;;25.70;77.10;;;;;;5035916;28;19909;-81
2023/09/01 10:04:09;;;;;;;;;;;25.80;77.10;;;;;;4994916;28;19952;-74
2023/09/01 10:06:35;;;;;;;;;;;25.80;76.80;;;;;;5011085;28;20424;-80
2023/09/01 10:09:04;;;;;;;;;;;25.70;76.70;;;;;;5010786;28;19917;-80
2023/09/01 10:11:29;;;;;;;;;;;25.30;76.70;;;;;;5028504;28;19960;-79
2023/09/01 10:13:56;;;;;;;;;;;25.00;77.00;;;;;;5032574;28;19955;-77
2023/09/01 10:16:22;;;;;;;;;;;24.80;77.20;;;;;;5031844;28;19916;-75
2023/09/01 10:18:47;;;;;;;;;;;24.50;77.30;;;;;;5032784;28;20361;-75
2023/09/01 10:21:13;;;;;;;;;;;24.30;77.60;;;;;;5032720;28;19963;-77
2023/09/01 10:23:39;;;;;;;;;;;24.20;78.10;;;;;;5015390;28;20100;-76
2023/09/01 10:26:24;;;;;;;;;;;24.20;78.20;;;;;;5033790;28;19917;-78
2023/09/01 10:28:57;;;;;;;;;;;24.30;78.20;;;;;;5047802;28;19913;-80
2023/09/01 10:31:23;;;;;;;;;;;24.60;78.10;;;;;;5032824;28;19952;-77
2023/09/01 10:34:12;;;;;;;;;;;25.00;78.10;;;;;;5032261;28;19913;-79
2023/09/01 10:36:38;;;;;;;;;;;25.30;78.10;;;;;;5032357;28;19920;-80
2023/09/01 10:39:16;;;;;;;;;;;25.80;78.00;;;;;;5032333;28;19949;-81
2023/09/01 10:41:51;;;;;;;;;;;26.20;78.00;;;;;;5015326;28;19973;-78
2023/09/01 10:44:17;;;;;;;;;;;26.60;78.20;;;;;;5033204;28;19920;-78
2023/09/01 10:46:42;;;;;;;;;;;27.00;78.10;;;;;;5031821;28;19913;-80
2023/09/01 10:49:10;;;;;;;;;;;27.00;77.50;;;;;;5014968;28;19932;-80
2023/09/01 10:51:43;;;;;;;;;;;26.70;77.10;;;;;;5013629;28;19985;-76
2023/09/01 10:54:14;;;;;;;;;;;26.30;77.10;;;;;;5013814;28;19957;-78
2023/09/01 10:56:56;;;;;;;;;;;25.80;77.10;;;;;;5031962;28;19940;-78
2023/09/01 10:59:29;;;;;;;;;;;25.30;77.40;;;;;;5014526;28;19909;-79
2023/09/01 11:01:54;;;;;;;;;;;25.10;77.50;;;;;;5013400;28;19909;-78
2023/09/01 11:04:20;;;;;;;;;;;24.90;77.30;;;;;;5030938;28;19919;-79
2023/09/01 11:06:58;;;;;;;;;;;24.50;77.40;;;;;;5032525;28;19917;-84
2023/09/01 11:09:42;;;;;;;;;;;24.20;78.00;;;;;;5036653;28;19909;-80
2023/09/01 11:12:08;;;;;;;;;;;24.30;79.00;;;;;;5036633;28;19924;-80
2023/09/01 11:14:35;;;;;;;;;;;24.80;79.70;;;;;;5048891;28;19920;-83
2023/09/01 11:17:03;;;;;;;;;;;26.00;80.50;;;;;;5032719;28;20278;-68
2023/09/01 11:19:29;;;;;;;;;;;27.80;80.70;;;;;;5012671;28;19910;-83
2023/09/01 11:21:54;;;;;;;;;;;29.70;80.30;;;;;;5013328;28;20282;-83
2023/09/01 11:24:20;;;;;;;;;;;31.30;79.60;;;;;;4980442;28;19921;-81
2023/09/01 11:26:46;;;;;;;;;;;32.50;78.80;;;;;;5012267;28;19923;-81
2023/09/01 11:29:12;;;;;;;;;;;33.40;78.40;;;;;;5019119;28;19914;-81
2023/09/01 11:31:38;;;;;;;;;;;34.40;78.70;;;;;;5011598;28;19940;-80
2023/09/01 11:34:04;;;;;;;;;;;35.20;78.60;;;;;;5011162;28;20004;-79
2023/09/01 11:36:30;;;;;;;;;;;35.80;78.30;;;;;;4994182;28;19952;-82
2023/09/01 11:38:55;;;;;;;;;;;36.10;78.10;;;;;;4995577;28;19967;-82
2023/09/01 11:41:21;;;;;;;;;;;36.40;78.70;;;;;;4996566;28;20004;-76
2023/09/01 11:43:47;;;;;;;;;;;36.60;79.20;;;;;;5012318;28;19914;-79
2023/09/01 11:46:13;;;;;;;;;;;36.40;79.10;;;;;;4996788;28;19913;-82
2023/09/01 11:48:39;;;;;;;;;;;36.50;79.70;;;;;;4994784;28;19910;-82
2023/09/01 11:51:04;;;;;;;;;;;36.90;80.00;;;;;;4993972;28;20273;-80
2023/09/01 11:53:32;;;;;;;;;;;37.20;79.80;;;;;;5012227;28;19913;-78
2023/09/01 11:55:58;;;;;;;;;;;37.10;80.00;;;;;;5011035;28;19916;-80
2023/09/01 11:58:44;;;;;;;;;;;37.20;80.60;;;;;;4993988;28;19913;-81
2023/09/01 12:01:14;;;;;;;;;;;37.50;80.70;;;;;;5011568;28;19932;-82
2023/09/01 12:03:43;;;;;;;;;;;37.00;79.70;;;;;;5011104;28;19916;-81
2023/09/01 12:06:16;;;;;;;;;;;36.10;79.60;;;;;;5010546;28;19933;-76
2023/09/01 12:08:42;;;;;;;;;;;35.90;80.60;;;;;;5011008;28;19916;-74
2023/09/01 12:11:07;;;;;;;;;;;35.90;80.20;;;;;;5010200;28;19925;-79
2023/09/01 12:13:33;;;;;;;;;;;35.30;79.90;;;;;;4992845;28;19918;-79
2023/09/01 12:16:00;;;;;;;;;;;34.50;79.40;;;;;;5010449;28;19940;-81
2023/09/01 12:18:29;;;;;;;;;;;33.30;79.20;;;;;;4976844;28;19937;-77
2023/09/01 12:20:55;;;;;;;;;;;32.20;80.10;;;;;;5011193;28;19914;-82
2023/09/01 12:23:24;;;;;;;;;;;31.20;80.40;;;;;;5012150;28;19916;-80
2023/09/01 12:25:51;;;;;;;;;;;30.50;80.70;;;;;;4996427;28;19924;-80
2023/09/01 12:28:16;;;;;;;;;;;30.20;82.50;;;;;;5046229;28;19943;-83
2023/09/01 12:30:42;;;;;;;;;;;30.50;82.30;;;;;;5045733;28;19913;-79
2023/09/01 12:33:07;;;;;;;;;;;30.30;81.40;;;;;;5011967;28;19991;-79
2023/09/01 12:35:33;;;;;;;;;;;30.00;81.00;;;;;;5028860;28;19913;-75
2023/09/01 12:37:58;;;;;;;;;;;29.90;81.00;;;;;;5030300;28;19913;-78
2023/09/01 12:40:24;;;;;;;;;;;30.10;81.50;;;;;;5031710;28;19913;-82
2023/09/01 12:42:50;;;;;;;;;;;30.00;80.70;;;;;;5030674;28;19960;-80
2023/09/01 12:45:15;;;;;;;;;;;29.70;80.20;;;;;;5032148;28;20501;-83
2023/09/01 12:47:41;;;;;;;;;;;29.40;79.90;;;;;;5029675;28;19940;-82
2023/09/01 12:50:07;;;;;;;;;;;28.90;79.60;;;;;;5030280;28;19928;-79
2023/09/01 12:52:32;;;;;;;;;;;28.60;80.00;;;;;;5045836;28;19924;-79
2023/09/01 12:54:58;;;;;;;;;;;28.60;81.60;;;;;;5045254;28;19913;-80
2023/09/01 12:57:23;;;;;;;;;;;28.60;81.10;;;;;;5034314;28;19921;-80
2023/09/01 12:59:49;;;;;;;;;;;28.60;80.50;;;;;;5031489;28;19920;-82
2023/09/01 13:02:14;;;;;;;;;;;28.30;79.70;;;;;;5029871;28;19975;-81
2023/09/01 13:04:40;;;;;;;;;;;27.90;79.00;;;;;;5030216;28;19920;-80
2023/09/01 13:07:07;;;;;;;;;;;27.40;78.40;;;;;;5012439;28;20384;-78
2023/09/01 13:09:32;;;;;;;;;;;26.80;78.20;;;;;;5029840;28;19936;-79
2023/09/01 13:11:58;;;;;;;;;;;26.20;78.50;;;;;;5030025;28;20425;-77
2023/09/01 13:14:24;;;;;;;;;;;25.70;78.50;;;;;;5029939;28;19963;-80
2023/09/01 13:16:49;;;;;;;;;;;25.40;78.60;;;;;;5029604;28;19988;-79
2023/09/01 13:19:15;;;;;;;;;;;25.10;78.60;;;;;;5011734;28;20309;-77
2023/09/01 13:21:40;;;;;;;;;;;24.90;78.60;;;;;;5029740;28;19909;-80
2023/09/01 13:24:06;;;;;;;;;;;24.70;78.50;;;;;;5028299;28;19966;-79
2023/09/01 13:26:32;;;;;;;;;;;24.60;78.30;;;;;;5027624;28;20015;-77
2023/09/01 13:28:58;;;;;;;;;;;24.50;78.10;;;;;;5029533;28;19912;-77
2023/09/01 13:31:24;;;;;;;;;;;24.50;77.90;;;;;;5019370;28;19917;-82
2023/09/01 13:33:49;;;;;;;;;;;24.30;77.80;;;;;;5035904;28;19925;-80
2023/09/01 13:36:15;;;;;;;;;;;24.20;78.10;;;;;;5011108;28;20023;-81
2023/09/01 13:38:41;;;;;;;;;;;24.10;78.20;;;;;;5012111;28;20020;-81
2023/09/01 13:41:07;;;;;;;;;;;23.90;78.30;;;;;;5029095;28;19917;-81
2023/09/01 13:43:33;;;;;;;;;;;23.90;78.30;;;;;;5011551;28;19964;-80
2023/09/01 13:46:17;;;;;;;;;;;23.90;78.40;;;;;;5012904;28;19909;-79
2023/09/01 13:48:43;;;;;;;;;;;24.00;78.10;;;;;;5010982;28;19913;-79
2023/09/01 13:51:08;;;;;;;;;;;24.10;77.80;;;;;;4996401;28;19914;-80
2023/09/01 13:53:34;;;;;;;;;;;24.10;77.80;;;;;;4995799;28;19916;-81
2023/09/01 13:56:00;;;;;;;;;;;23.90;77.90;;;;;;5012815;28;20272;-80
2023/09/01 13:58:25;;;;;;;;;;;23.80;77.90;;;;;;4999102;28;19920;-79
2023/09/01 14:00:53;;;;;;;;;;;23.60;77.80;;;;;;5048163;28;19967;-78
2023/09/01 14:03:18;;;;;;;;;;;23.40;77.80;;;;;;5032556;28;19940;-77
2023/09/01 14:05:44;;;;;;;;;;;23.20;77.90;;;;;;5048639;28;20014;-80
2023/09/01 14:08:10;;;;;;;;;;;23.10;78.00;;;;;;5033094;28;20262;-78
2023/09/01 14:10:35;;;;;;;;;;;23.10;78.10;;;;;;5032395;28;19920;-81
2023/09/01 14:13:01;;;;;;;;;;;23.20;78.10;;;;;;5030919;28;19917;-76
2023/09/01 14:15:27;;;;;;;;;;;23.20;78.00;;;;;;5031906;28;19917;-76